»·PEaware :: N701GT KHND-KCRQ

N701GT :: KHND-KCRQ

FLIGHT INFORMATION

Flight Status: Arrived
Operator: Privately registered:
United States
More flights under this callsign
Pilot: Anonymous 17564 (17564)
Aircraft: CESSNA 310
(C310)
More flights by this aircraft type
Origin: KHND Henderson
United States
Destination: KCRQ McClellan-Palomar
United States
More flights between these airports :: More routes between these airports
Route: +PALLY5 TNP MOMAR V460 JLI
File this flight plan on PilotEdge
Remarks:
Altitude:
(Current/Filed)
16,000ft
Speed:
(Current/Filed)
180kts
Departed: 07-Jul-18 05:02 PM
Arrived: 07-Jul-18 06:32 PM
Distance/Time
Traveled:
201nm/1:30
Distance/Time
To Go:
Arrived

Flight Plot

Page will automatically refresh every two minutes.


Map Options




Map Legend


Flown Route
Filed Route
Departure Airport
Arrival Airport
Navaid (VOR, NDB)
Fix

Horizontal Profiles

Position Reports

Time Latitude Longitude Heading Altitude Ground
Speed
07-Jul-18 16:23 35.973313 -115.137624 0 2495ft 0kts
07-Jul-18 16:24 35.973313 -115.137624 0 2495ft 0kts
07-Jul-18 16:25 35.973313 -115.137624 0 2495ft 0kts
07-Jul-18 16:26 35.973313 -115.137624 0 2495ft 0kts
07-Jul-18 16:27 35.973313 -115.137624 0 2495ft 0kts
07-Jul-18 16:28 35.973313 -115.137624 0 2495ft 0kts
07-Jul-18 16:29 35.973313 -115.137624 0 2495ft 0kts
07-Jul-18 16:30 35.973313 -115.137624 0 2495ft 0kts
07-Jul-18 16:31 35.973313 -115.137624 0 2495ft 0kts
07-Jul-18 16:32 35.973313 -115.137624 0 2495ft 0kts
07-Jul-18 16:33 35.973313 -115.137624 0 2495ft 0kts
07-Jul-18 16:34 35.973313 -115.137624 0 2495ft 0kts
07-Jul-18 16:35 35.973313 -115.137624 0 2495ft 0kts
07-Jul-18 16:36 35.973313 -115.137624 0 2495ft 0kts
07-Jul-18 16:37 35.973313 -115.137624 0 2495ft 0kts
07-Jul-18 16:38 35.973313 -115.137624 0 2495ft 0kts
07-Jul-18 16:39 35.973313 -115.137624 0 2495ft 0kts
07-Jul-18 16:40 35.973313 -115.137624 0 2495ft 0kts
07-Jul-18 16:41 35.973313 -115.137624 0 2495ft 0kts
07-Jul-18 16:42 35.973313 -115.137624 0 2495ft 0kts
07-Jul-18 16:43 35.973313 -115.137624 0 2495ft 0kts
07-Jul-18 16:44 35.973313 -115.137624 0 2495ft 0kts
07-Jul-18 16:45 35.973313 -115.137624 0 2495ft 0kts
07-Jul-18 16:46 35.973313 -115.137624 0 2495ft 0kts
07-Jul-18 16:47 35.973313 -115.137624 0 2495ft 0kts
07-Jul-18 16:48 35.973313 -115.137624 0 2495ft 0kts
07-Jul-18 16:49 35.973313 -115.137624 0 2495ft 0kts
07-Jul-18 16:50 35.973313 -115.137624 0 2495ft 0kts
07-Jul-18 16:51 35.973313 -115.137624 0 2495ft 0kts
07-Jul-18 16:52 35.973313 -115.137624 0 2495ft 0kts
07-Jul-18 16:53 35.973313 -115.137624 0 2495ft 0kts
07-Jul-18 16:53 35.974352 -115.137374 35 2495ft 0kts
07-Jul-18 16:54 35.974352 -115.137374 35 2495ft 0kts
07-Jul-18 16:55 35.974352 -115.137374 35 2495ft 0kts
07-Jul-18 16:56 35.974352 -115.137374 35 2495ft 0kts
07-Jul-18 16:57 35.974508 -115.136977 87 2495ft 13kts
07-Jul-18 16:58 35.972173 -115.136543 181 2495ft 13kts
07-Jul-18 16:59 35.967146 -115.136570 182 2495ft 15kts
07-Jul-18 17:00 35.963285 -115.136376 92 2495ft 0kts
07-Jul-18 17:01 35.963285 -115.136376 92 2495ft 0kts
07-Jul-18 17:02 35.974913 -115.135494 2 2533ft 119kts
07-Jul-18 17:03 36.002732 -115.115359 98 3624ft 132kts
07-Jul-18 17:04 36.001247 -115.068792 89 4987ft 144kts
07-Jul-18 17:05 36.004862 -115.016679 91 6092ft 159kts
07-Jul-18 17:06 35.976134 -114.986560 163 7297ft 146kts
07-Jul-18 17:07 35.937437 -114.968872 162 8515ft 149kts
07-Jul-18 17:08 35.898085 -114.959509 207 9690ft 140kts
07-Jul-18 17:09 35.868043 -114.988239 215 10897ft 135kts
07-Jul-18 17:10 35.837702 -115.017256 214 12089ft 140kts
07-Jul-18 17:11 35.806718 -115.046827 215 13227ft 141kts
07-Jul-18 17:12 35.774042 -115.077856 215 13972ft 153kts
07-Jul-18 17:13 35.748081 -115.119857 242 14690ft 157kts
07-Jul-18 17:14 35.729112 -115.167877 241 15349ft 148kts
07-Jul-18 17:15 35.711932 -115.210927 241 15963ft 137kts
07-Jul-18 17:17 35.693043 -115.257931 242 16056ft 167kts
07-Jul-18 17:18 35.656295 -115.284724 182 16024ft 163kts
07-Jul-18 17:19 35.611761 -115.289739 183 16021ft 158kts
07-Jul-18 17:20 35.568202 -115.294540 183 16023ft 156kts
07-Jul-18 17:21 35.524935 -115.299294 183 16017ft 155kts
07-Jul-18 17:22 35.481513 -115.302563 179 16028ft 162kts
07-Jul-18 17:23 35.434362 -115.304157 180 16004ft 169kts
07-Jul-18 17:24 35.387326 -115.305966 180 15977ft 165kts
07-Jul-18 17:25 35.342367 -115.307752 180 15986ft 161kts
07-Jul-18 17:26 35.296658 -115.309538 180 16000ft 168kts
07-Jul-18 17:27 35.248482 -115.311434 180 15983ft 173kts
07-Jul-18 17:28 35.199806 -115.313337 180 15979ft 174kts
07-Jul-18 17:29 35.151070 -115.315264 180 15973ft 173kts
07-Jul-18 17:30 35.102642 -115.317157 179 15907ft 168kts
07-Jul-18 17:31 35.057159 -115.318954 179 15906ft 160kts
07-Jul-18 17:32 35.013086 -115.320687 179 15905ft 157kts
07-Jul-18 17:33 34.969496 -115.322399 179 15911ft 157kts
07-Jul-18 17:34 34.925466 -115.324109 179 15936ft 164kts
07-Jul-18 17:35 34.877931 -115.325937 179 15933ft 172kts
07-Jul-18 17:36 34.829555 -115.327830 179 15921ft 170kts
07-Jul-18 17:37 34.782974 -115.329951 187 15919ft 165kts
07-Jul-18 17:38 34.739406 -115.348807 197 15948ft 169kts
07-Jul-18 17:39 34.694151 -115.368763 197 15924ft 169kts
07-Jul-18 17:40 34.650454 -115.387897 197 15870ft 164kts
07-Jul-18 17:41 34.608047 -115.406457 197 15875ft 160kts
07-Jul-18 17:42 34.566168 -115.424711 197 15908ft 166kts
07-Jul-18 17:43 34.521092 -115.444399 197 15889ft 168kts
07-Jul-18 17:44 34.477735 -115.463269 197 15920ft 169kts
07-Jul-18 17:45 34.431944 -115.483205 197 15917ft 174kts
07-Jul-18 17:46 34.386440 -115.503002 197 15905ft 169kts
07-Jul-18 17:47 34.342686 -115.521963 197 15936ft 172kts
07-Jul-18 17:48 34.302441 -115.555279 221 15915ft 176kts
07-Jul-18 17:49 34.267218 -115.595371 221 15901ft 172kts
07-Jul-18 17:50 34.232195 -115.634879 221 15920ft 178kts
07-Jul-18 17:51 34.195141 -115.676572 221 15918ft 182kts
07-Jul-18 17:52 34.158254 -115.718047 221 15902ft 176kts
07-Jul-18 17:53 34.122753 -115.757833 221 15910ft 172kts
07-Jul-18 17:54 34.080103 -115.779024 191 15912ft 170kts
07-Jul-18 17:55 34.033204 -115.792860 191 15922ft 178kts
07-Jul-18 17:56 33.984285 -115.807282 191 15875ft 176kts
07-Jul-18 17:57 33.937571 -115.820993 191 15865ft 170kts
07-Jul-18 17:58 33.891503 -115.834502 191 15848ft 169kts
07-Jul-18 17:59 33.845883 -115.847863 191 15831ft 168kts
07-Jul-18 18:00 33.799718 -115.861328 191 15828ft 177kts
07-Jul-18 18:01 33.750946 -115.875616 191 15767ft 176kts
07-Jul-18 18:02 33.703698 -115.889378 191 15762ft 179kts
07-Jul-18 18:03 33.654805 -115.903623 191 15725ft 176kts
07-Jul-18 18:04 33.609153 -115.916922 190 15920ft 169kts
07-Jul-18 18:05 33.562051 -115.930629 191 15904ft 172kts
07-Jul-18 18:06 33.516119 -115.945466 209 15926ft 178kts
07-Jul-18 18:07 33.486014 -115.994138 234 15908ft 177kts
07-Jul-18 18:08 33.461705 -116.036431 233 15906ft 136kts
07-Jul-18 18:09 33.437001 -116.078839 233 15930ft 169kts
07-Jul-18 18:10 33.409120 -116.126846 233 15931ft 179kts
07-Jul-18 18:11 33.380263 -116.176331 233 15931ft 182kts
07-Jul-18 18:12 33.351784 -116.225273 233 15426ft 173kts
07-Jul-18 18:13 33.325475 -116.270511 233 14409ft 149kts
07-Jul-18 18:14 33.298835 -116.315932 233 13637ft 177kts
07-Jul-18 18:15 33.269683 -116.365647 232 12849ft 185kts
07-Jul-18 18:16 33.239920 -116.416459 233 12058ft 188kts
07-Jul-18 18:17 33.209881 -116.467594 233 11992ft 188kts
07-Jul-18 18:18 33.180025 -116.518415 233 12062ft 186kts
07-Jul-18 18:19 33.150019 -116.569370 233 12073ft 187kts
07-Jul-18 18:20 33.139915 -116.628948 271 11997ft 193kts
07-Jul-18 18:21 33.141910 -116.692829 272 11182ft 191kts
07-Jul-18 18:22 33.144239 -116.752311 272 9768ft 172kts
07-Jul-18 18:23 33.147018 -116.808084 272 8352ft 168kts
07-Jul-18 18:24 33.150007 -116.866016 271 7057ft 178kts
07-Jul-18 18:25 33.153214 -116.926183 271 6365ft 184kts
07-Jul-18 18:26 33.156440 -116.987281 271 5665ft 185kts
07-Jul-18 18:27 33.159566 -117.049872 266 4575ft 193kts
07-Jul-18 18:28 33.155081 -117.103056 258 3714ft 133kts
07-Jul-18 18:29 33.149600 -117.141615 257 3147ft 124kts
07-Jul-18 18:30 33.143263 -117.181472 255 2359ft 113kts
07-Jul-18 18:31 33.137640 -117.217536 257 1569ft 110kts
07-Jul-18 18:32 33.132349 -117.253234 257 742ft 99kts
07-Jul-18 18:33 33.128271 -117.279183 210 303ft 15kts
07-Jul-18 18:34 33.127969 -117.279419 224 303ft 0kts
07-Jul-18 18:35 33.127513 -117.279633 102 303ft 12kts
07-Jul-18 18:36 33.127787 -117.275218 164 303ft 6kts
07-Jul-18 18:37 33.127853 -117.274813 342 303ft 0kts
07-Jul-18 18:38 33.127853 -117.274813 342 303ft 0kts
07-Jul-18 18:39 33.127853 -117.274813 342 303ft 0kts
07-Jul-18 18:40 33.127853 -117.274813 342 303ft 0kts
07-Jul-18 18:41 33.127853 -117.274813 342 303ft 0kts
07-Jul-18 18:42 33.127853 -117.274813 342 303ft 0kts
07-Jul-18 18:43 33.127853 -117.274813 342 303ft 0kts
07-Jul-18 18:44 33.127853 -117.274813 342 303ft 0kts
07-Jul-18 18:45 33.127853 -117.274813 342 303ft 0kts
07-Jul-18 18:46 33.127853 -117.274813 342 303ft 0kts
07-Jul-18 18:47 33.127853 -117.274813 342 303ft 0kts

Navigation Log

Ident Type
Flight plan parsing failed, navigation log unavailable